Time;durP1;ratioP1;P1;durP2;ratioP2;P2;SDS_P1;SDS_P2;PMS_P1;PMS_P2;Temp;Humidity;BMP_temperature;BMP_pressure;BME280_temperature;BME280_humidity;BME280_pressure;Samples;Min_cycle;Max_cycle;Signal;HPM_P1;HPM_P2
2023/12/28 00:01:59;;;;;;;;;;;3.60;99.90;;;;;;5033282;28;19913;-87
2023/12/28 00:04:25;;;;;;;;;;;3.90;99.90;;;;;;5032984;28;19917;-87
2023/12/28 00:06:51;;;;;;;;;;;4.00;99.90;;;;;;5033224;28;19980;-88
2023/12/28 00:09:16;;;;;;;;;;;4.10;99.90;;;;;;5033701;28;19913;-88
2023/12/28 00:11:42;;;;;;;;;;;4.10;99.90;;;;;;5034139;28;19905;-89
2023/12/28 00:14:07;;;;;;;;;;;4.20;99.90;;;;;;5033760;28;19924;-89
2023/12/28 00:16:34;;;;;;;;;;;4.30;99.90;;;;;;5033807;28;19909;-88
2023/12/28 00:19:01;;;;;;;;;;;4.30;99.90;;;;;;5033411;28;19956;-87
2023/12/28 00:21:27;;;;;;;;;;;4.50;99.90;;;;;;5033311;28;20273;-87
2023/12/28 00:23:53;;;;;;;;;;;4.60;99.90;;;;;;5031584;28;19912;-88
2023/12/28 00:26:21;;;;;;;;;;;4.70;99.90;;;;;;5033548;28;19913;-88
2023/12/28 00:28:50;;;;;;;;;;;4.70;99.90;;;;;;5033659;28;20014;-87
2023/12/28 00:31:15;;;;;;;;;;;4.70;99.90;;;;;;5033115;28;19936;-88
2023/12/28 00:33:41;;;;;;;;;;;4.80;99.90;;;;;;5032620;28;19909;-87
2023/12/28 00:36:07;;;;;;;;;;;4.80;99.90;;;;;;5032598;28;19916;-88
2023/12/28 00:38:33;;;;;;;;;;;4.70;99.90;;;;;;5032474;28;20391;-88
2023/12/28 00:40:58;;;;;;;;;;;4.90;99.90;;;;;;5032710;28;19913;-89
2023/12/28 00:43:24;;;;;;;;;;;4.80;99.90;;;;;;5032657;28;19909;-87
2023/12/28 00:45:50;;;;;;;;;;;4.60;99.90;;;;;;5033103;28;19909;-87
2023/12/28 00:48:15;;;;;;;;;;;4.60;99.90;;;;;;5032830;28;20666;-87
2023/12/28 00:50:41;;;;;;;;;;;4.70;99.90;;;;;;5031979;28;19915;-88
2023/12/28 00:53:06;;;;;;;;;;;4.80;99.90;;;;;;5032810;28;19913;-87
2023/12/28 00:55:33;;;;;;;;;;;4.80;99.90;;;;;;5032719;28;19931;-88
2023/12/28 00:57:59;;;;;;;;;;;4.90;99.90;;;;;;5032825;28;20003;-87
2023/12/28 01:00:24;;;;;;;;;;;4.90;99.90;;;;;;5032672;28;19913;-88
2023/12/28 01:02:51;;;;;;;;;;;4.90;99.90;;;;;;5032638;28;20349;-87
2023/12/28 01:05:17;;;;;;;;;;;4.90;99.90;;;;;;5032105;28;19947;-89
2023/12/28 01:07:42;;;;;;;;;;;4.80;99.90;;;;;;5032735;28;19913;-88
2023/12/28 01:10:08;;;;;;;;;;;4.70;99.90;;;;;;5032572;28;19916;-87
2023/12/28 01:12:34;;;;;;;;;;;4.60;99.90;;;;;;5032224;28;19919;-87
2023/12/28 01:14:59;;;;;;;;;;;4.50;99.90;;;;;;5032932;28;20363;-87
2023/12/28 01:17:25;;;;;;;;;;;4.70;99.90;;;;;;5032413;28;20379;-87
2023/12/28 01:19:51;;;;;;;;;;;4.70;99.90;;;;;;5032351;28;19913;-88
2023/12/28 01:22:45;;;;;;;;;;;4.70;99.90;;;;;;5032824;28;19924;-88
2023/12/28 01:25:11;;;;;;;;;;;4.60;99.90;;;;;;5031197;28;19916;-88
2023/12/28 01:27:37;;;;;;;;;;;4.50;99.90;;;;;;5031287;28;19917;-87
2023/12/28 01:30:02;;;;;;;;;;;4.50;99.90;;;;;;5031803;28;19948;-88
2023/12/28 01:32:28;;;;;;;;;;;4.60;99.90;;;;;;5031507;28;20364;-88
2023/12/28 01:34:54;;;;;;;;;;;4.70;99.90;;;;;;5032573;28;19920;-87
2023/12/28 01:37:19;;;;;;;;;;;4.70;99.90;;;;;;5031815;28;20418;-87
2023/12/28 01:39:45;;;;;;;;;;;4.80;99.90;;;;;;5032305;28;19913;-88
2023/12/28 01:42:10;;;;;;;;;;;4.80;99.90;;;;;;5032012;28;20253;-87
2023/12/28 01:44:37;;;;;;;;;;;4.90;99.90;;;;;;5032171;28;19913;-88
2023/12/28 01:47:03;;;;;;;;;;;5.10;99.90;;;;;;5031269;28;19913;-88
2023/12/28 01:49:31;;;;;;;;;;;5.20;99.90;;;;;;5031759;28;19913;-88
2023/12/28 01:51:57;;;;;;;;;;;5.40;99.90;;;;;;5031626;28;19940;-87
2023/12/28 01:54:22;;;;;;;;;;;5.40;99.90;;;;;;5031914;28;19971;-88
2023/12/28 01:56:48;;;;;;;;;;;5.40;99.90;;;;;;5031468;28;19959;-87
2023/12/28 01:59:14;;;;;;;;;;;5.50;99.90;;;;;;5031655;28;19909;-87
2023/12/28 02:01:40;;;;;;;;;;;5.60;99.90;;;;;;5031835;28;20027;-88
2023/12/28 02:04:06;;;;;;;;;;;5.70;99.90;;;;;;5035084;28;20284;-88
2023/12/28 02:06:32;;;;;;;;;;;5.70;99.90;;;;;;5035454;28;19913;-87
2023/12/28 02:08:57;;;;;;;;;;;5.80;99.90;;;;;;5035514;28;19909;-88
2023/12/28 02:11:23;;;;;;;;;;;5.90;99.90;;;;;;5035180;28;19909;-87
2023/12/28 02:13:49;;;;;;;;;;;6.10;99.90;;;;;;5035037;28;19972;-87
2023/12/28 02:16:44;;;;;;;;;;;6.20;99.90;;;;;;5034845;28;19905;-88
2023/12/28 02:19:23;;;;;;;;;;;6.40;99.90;;;;;;5034444;28;20000;-88
2023/12/28 02:21:49;;;;;;;;;;;6.70;99.90;;;;;;5034707;28;20360;-88
2023/12/28 02:24:15;;;;;;;;;;;6.70;99.90;;;;;;5035152;28;20068;-88
2023/12/28 02:26:41;;;;;;;;;;;6.80;99.90;;;;;;5016633;28;19999;-87
2023/12/28 02:29:24;;;;;;;;;;;6.90;99.90;;;;;;5034981;28;19913;-87
2023/12/28 02:31:58;;;;;;;;;;;6.90;99.90;;;;;;5034941;28;20326;-87
2023/12/28 02:34:28;;;;;;;;;;;7.20;99.90;;;;;;5034555;28;20352;-88
2023/12/28 02:36:56;;;;;;;;;;;7.30;99.90;;;;;;5034667;28;19916;-88
2023/12/28 02:39:22;;;;;;;;;;;7.40;99.90;;;;;;5034698;28;19913;-86
2023/12/28 02:41:48;;;;;;;;;;;7.30;99.90;;;;;;5034952;28;19913;-87
2023/12/28 02:44:13;;;;;;;;;;;7.20;99.90;;;;;;5034295;28;19955;-87
2023/12/28 02:46:39;;;;;;;;;;;7.20;99.90;;;;;;5034851;28;19913;-87
2023/12/28 02:49:04;;;;;;;;;;;7.30;99.90;;;;;;5017934;28;19967;-87
2023/12/28 02:51:32;;;;;;;;;;;7.30;99.90;;;;;;5018040;28;19979;-87
2023/12/28 02:54:28;;;;;;;;;;;7.30;99.90;;;;;;5034378;28;19921;-87
2023/12/28 02:56:54;;;;;;;;;;;7.20;99.90;;;;;;5034584;28;20546;-87
2023/12/28 02:59:20;;;;;;;;;;;7.20;99.90;;;;;;5034398;28;19913;-87
2023/12/28 03:01:45;;;;;;;;;;;7.10;99.90;;;;;;5034385;28;19916;-87
2023/12/28 03:04:11;;;;;;;;;;;7.20;99.90;;;;;;5034596;28;19916;-88
2023/12/28 03:06:38;;;;;;;;;;;7.20;99.90;;;;;;5033793;28;19916;-87
2023/12/28 03:09:04;;;;;;;;;;;7.10;99.90;;;;;;5034608;28;19909;-88
2023/12/28 03:11:30;;;;;;;;;;;7.20;99.90;;;;;;5034849;28;20430;-87
2023/12/28 03:13:56;;;;;;;;;;;7.20;99.90;;;;;;5034338;28;19912;-88
2023/12/28 03:16:21;;;;;;;;;;;7.20;99.90;;;;;;5017951;28;19956;-88
2023/12/28 03:18:47;;;;;;;;;;;7.20;99.90;;;;;;5034695;28;19912;-88
2023/12/28 03:21:12;;;;;;;;;;;7.20;99.90;;;;;;5034238;28;19970;-86
2023/12/28 03:23:53;;;;;;;;;;;7.20;99.90;;;;;;5034662;28;19967;-87
2023/12/28 03:29:26;;;;;;;;;;;7.30;99.90;;;;;;5051862;28;19921;-88
2023/12/28 03:31:52;;;;;;;;;;;7.30;99.90;;;;;;5038022;28;19909;-87
2023/12/28 03:34:36;;;;;;;;;;;7.40;99.90;;;;;;5049318;28;19920;-87
2023/12/28 03:37:03;;;;;;;;;;;7.40;99.90;;;;;;5046335;28;19973;-86
2023/12/28 03:39:29;;;;;;;;;;;7.40;99.90;;;;;;5047604;28;19917;-87
2023/12/28 03:41:54;;;;;;;;;;;7.30;99.90;;;;;;5049527;28;19917;-87
2023/12/28 03:44:20;;;;;;;;;;;7.20;99.90;;;;;;5036135;28;19909;-88
2023/12/28 03:46:50;;;;;;;;;;;7.20;99.90;;;;;;5035591;28;19970;-87
2023/12/28 03:49:19;;;;;;;;;;;7.20;99.90;;;;;;5035711;28;19909;-88
2023/12/28 03:51:44;;;;;;;;;;;7.20;99.90;;;;;;5034504;28;19909;-88
2023/12/28 03:54:10;;;;;;;;;;;7.20;99.90;;;;;;5034803;28;19920;-88
2023/12/28 03:56:39;;;;;;;;;;;7.30;99.90;;;;;;5033609;28;19920;-87
2023/12/28 03:59:05;;;;;;;;;;;7.30;99.90;;;;;;5033413;28;19948;-88
2023/12/28 04:01:33;;;;;;;;;;;7.30;99.90;;;;;;5033819;28;19959;-88
2023/12/28 04:03:59;;;;;;;;;;;7.30;99.90;;;;;;5033603;28;20628;-87
2023/12/28 04:06:24;;;;;;;;;;;7.30;99.90;;;;;;5033243;28;20011;-87
2023/12/28 04:08:53;;;;;;;;;;;7.30;99.90;;;;;;5034042;28;19916;-87
2023/12/28 04:11:18;;;;;;;;;;;7.40;99.90;;;;;;5034037;28;19909;-88
2023/12/28 04:13:51;;;;;;;;;;;7.40;99.90;;;;;;5049865;28;20055;-87
2023/12/28 04:16:16;;;;;;;;;;;7.40;99.90;;;;;;5033807;28;19912;-87
2023/12/28 04:18:42;;;;;;;;;;;7.40;99.90;;;;;;5017172;28;19943;-87
2023/12/28 04:21:09;;;;;;;;;;;7.40;99.90;;;;;;5033133;28;19995;-88
2023/12/28 04:23:35;;;;;;;;;;;7.40;99.90;;;;;;5032744;28;19913;-88
2023/12/28 04:26:01;;;;;;;;;;;7.40;99.90;;;;;;5031651;28;20342;-88
2023/12/28 04:28:26;;;;;;;;;;;7.50;99.90;;;;;;5031842;28;19949;-87
2023/12/28 04:30:52;;;;;;;;;;;7.50;99.90;;;;;;5032502;28;19913;-88
2023/12/28 04:33:19;;;;;;;;;;;7.50;99.90;;;;;;5032365;28;19909;-86
2023/12/28 04:35:45;;;;;;;;;;;7.30;99.90;;;;;;5033142;28;19909;-88
2023/12/28 04:38:10;;;;;;;;;;;7.20;99.90;;;;;;5033079;28;19944;-87
2023/12/28 04:40:36;;;;;;;;;;;7.20;99.90;;;;;;5032627;28;20571;-88
2023/12/28 04:43:02;;;;;;;;;;;7.10;99.90;;;;;;5033254;28;19913;-88
2023/12/28 04:45:55;;;;;;;;;;;7.10;99.90;;;;;;5029622;28;19916;-87
2023/12/28 04:48:23;;;;;;;;;;;7.10;99.90;;;;;;5033392;28;19924;-88
2023/12/28 04:50:49;;;;;;;;;;;7.10;99.90;;;;;;5032861;28;19941;-87
2023/12/28 04:53:15;;;;;;;;;;;7.20;99.90;;;;;;5032695;28;20284;-88
2023/12/28 04:55:41;;;;;;;;;;;7.00;99.90;;;;;;5032736;28;19909;-86
2023/12/28 04:58:07;;;;;;;;;;;6.80;99.90;;;;;;5049483;28;20758;-88
2023/12/28 05:00:32;;;;;;;;;;;6.60;99.90;;;;;;5032773;28;19909;-87
2023/12/28 05:02:58;;;;;;;;;;;6.40;99.90;;;;;;5032189;28;19915;-86
2023/12/28 05:05:23;;;;;;;;;;;6.30;99.90;;;;;;5031878;28;20364;-86
2023/12/28 05:07:49;;;;;;;;;;;6.20;99.90;;;;;;5016005;28;19916;-86
2023/12/28 05:10:15;;;;;;;;;;;6.10;99.90;;;;;;5031751;28;19952;-86
2023/12/28 05:12:40;;;;;;;;;;;6.10;99.90;;;;;;5031591;28;19920;-87
2023/12/28 05:15:06;;;;;;;;;;;6.00;99.90;;;;;;5032986;28;19920;-87
2023/12/28 05:17:32;;;;;;;;;;;6.00;99.90;;;;;;5031627;28;20011;-86
2023/12/28 05:19:57;;;;;;;;;;;5.90;99.90;;;;;;5031447;28;20276;-86
2023/12/28 05:22:23;;;;;;;;;;;6.00;99.90;;;;;;5031403;28;19913;-85
2023/12/28 05:24:49;;;;;;;;;;;5.90;99.90;;;;;;5031460;28;19916;-86
2023/12/28 05:27:14;;;;;;;;;;;5.90;99.90;;;;;;5031230;28;19917;-86
2023/12/28 05:29:40;;;;;;;;;;;5.90;99.90;;;;;;5031291;28;20318;-87
2023/12/28 05:32:06;;;;;;;;;;;5.90;99.90;;;;;;5030863;28;19932;-85
2023/12/28 05:34:31;;;;;;;;;;;5.90;99.90;;;;;;5015079;28;19963;-86
2023/12/28 05:36:57;;;;;;;;;;;5.90;99.90;;;;;;5032209;28;19920;-86
2023/12/28 05:39:22;;;;;;;;;;;5.90;99.90;;;;;;5035005;28;20348;-85
2023/12/28 05:41:50;;;;;;;;;;;6.00;99.90;;;;;;5034923;28;19909;-86
2023/12/28 05:44:16;;;;;;;;;;;5.90;99.90;;;;;;5035232;28;20499;-87
2023/12/28 05:46:42;;;;;;;;;;;6.00;99.90;;;;;;5031980;28;19913;-86
2023/12/28 05:49:07;;;;;;;;;;;5.90;99.90;;;;;;5035092;28;20015;-86
2023/12/28 05:51:40;;;;;;;;;;;5.90;99.90;;;;;;5035734;28;19909;-86
2023/12/28 05:54:06;;;;;;;;;;;5.90;99.90;;;;;;5035275;28;19916;-86
2023/12/28 05:56:31;;;;;;;;;;;5.90;99.90;;;;;;5036099;28;19909;-86
2023/12/28 05:58:57;;;;;;;;;;;6.00;99.90;;;;;;5034765;28;20391;-86
2023/12/28 06:01:22;;;;;;;;;;;5.90;99.90;;;;;;5034786;28;19920;-85
2023/12/28 06:03:50;;;;;;;;;;;6.00;99.90;;;;;;5034586;28;20430;-86
2023/12/28 06:06:15;;;;;;;;;;;6.00;99.90;;;;;;5018581;28;19913;-86
2023/12/28 06:08:42;;;;;;;;;;;6.00;99.90;;;;;;5035323;28;19909;-86
2023/12/28 06:11:08;;;;;;;;;;;6.00;99.90;;;;;;5034705;28;20372;-86
2023/12/28 06:13:33;;;;;;;;;;;6.00;99.90;;;;;;5034845;28;19913;-86
2023/12/28 06:15:59;;;;;;;;;;;6.00;99.90;;;;;;5034234;28;19908;-85
2023/12/28 06:18:24;;;;;;;;;;;6.10;99.90;;;;;;5018617;28;19963;-86
2023/12/28 06:20:50;;;;;;;;;;;6.00;99.90;;;;;;5034877;28;19909;-86
2023/12/28 06:23:16;;;;;;;;;;;6.20;99.90;;;;;;5034083;28;19920;-86
2023/12/28 06:25:41;;;;;;;;;;;6.10;99.90;;;;;;5034870;28;20288;-86
2023/12/28 06:28:07;;;;;;;;;;;6.10;99.90;;;;;;5034344;28;20277;-86
2023/12/28 06:30:32;;;;;;;;;;;6.10;99.90;;;;;;5034352;28;19960;-85
2023/12/28 06:32:58;;;;;;;;;;;6.10;99.90;;;;;;5034233;28;19908;-85
2023/12/28 06:35:24;;;;;;;;;;;6.20;99.90;;;;;;5034714;28;19905;-86
2023/12/28 06:37:49;;;;;;;;;;;6.10;99.90;;;;;;5034575;28;19930;-86
2023/12/28 06:40:15;;;;;;;;;;;6.10;99.90;;;;;;5034307;28;19975;-86
2023/12/28 06:42:43;;;;;;;;;;;6.10;99.90;;;;;;5033902;28;19924;-85
2023/12/28 06:45:09;;;;;;;;;;;6.10;99.90;;;;;;5019724;28;19917;-85
2023/12/28 06:47:35;;;;;;;;;;;6.10;99.90;;;;;;5031341;28;20313;-86
2023/12/28 06:50:00;;;;;;;;;;;6.10;99.90;;;;;;5034216;28;19971;-85
2023/12/28 06:52:26;;;;;;;;;;;6.00;99.90;;;;;;5049978;28;19917;-84
2023/12/28 06:54:53;;;;;;;;;;;6.00;99.90;;;;;;5034248;28;19920;-86
2023/12/28 06:57:18;;;;;;;;;;;6.00;99.90;;;;;;5034617;28;20062;-85
2023/12/28 06:59:44;;;;;;;;;;;6.00;99.90;;;;;;5034710;28;19951;-86
2023/12/28 07:02:10;;;;;;;;;;;6.00;99.90;;;;;;5034486;28;19909;-87
2023/12/28 07:04:35;;;;;;;;;;;5.90;99.90;;;;;;5035323;28;19916;-85
2023/12/28 07:07:01;;;;;;;;;;;5.90;99.90;;;;;;5033484;28;19916;-86
2023/12/28 07:09:27;;;;;;;;;;;6.00;99.90;;;;;;5034313;28;19913;-85
2023/12/28 07:11:52;;;;;;;;;;;6.00;99.90;;;;;;5040380;28;19897;-85
2023/12/28 07:14:18;;;;;;;;;;;5.90;99.90;;;;;;5038088;28;19909;-86
2023/12/28 07:16:43;;;;;;;;;;;6.00;99.90;;;;;;5033875;28;19913;-85
2023/12/28 07:19:09;;;;;;;;;;;6.00;99.90;;;;;;5033447;28;19913;-85
2023/12/28 07:21:34;;;;;;;;;;;6.00;99.90;;;;;;5032844;28;19908;-86
2023/12/28 07:24:00;;;;;;;;;;;6.00;99.90;;;;;;5033351;28;19964;-86
2023/12/28 07:26:26;;;;;;;;;;;6.00;99.90;;;;;;5033303;28;20353;-86
2023/12/28 07:28:51;;;;;;;;;;;6.00;99.90;;;;;;5033381;28;19924;-85
2023/12/28 07:31:27;;;;;;;;;;;6.00;99.90;;;;;;5032657;28;19920;-85
2023/12/28 07:33:53;;;;;;;;;;;6.00;99.90;;;;;;5032676;28;20129;-85
2023/12/28 07:36:19;;;;;;;;;;;6.00;99.90;;;;;;5032464;28;20303;-86
2023/12/28 07:38:45;;;;;;;;;;;6.00;99.90;;;;;;5016657;28;19909;-86
2023/12/28 07:41:11;;;;;;;;;;;6.00;99.90;;;;;;5016550;28;19915;-86
2023/12/28 07:43:36;;;;;;;;;;;6.00;99.90;;;;;;5032969;28;19927;-86
2023/12/28 07:46:02;;;;;;;;;;;6.00;99.90;;;;;;5033283;28;20000;-86
2023/12/28 07:48:30;;;;;;;;;;;6.00;99.90;;;;;;5016573;28;20391;-86
2023/12/28 07:50:56;;;;;;;;;;;6.00;99.90;;;;;;5032246;28;19909;-86
2023/12/28 07:53:22;;;;;;;;;;;6.00;99.90;;;;;;5034377;28;19916;-87
2023/12/28 07:55:48;;;;;;;;;;;6.00;99.90;;;;;;5033505;28;19913;-85
2023/12/28 07:58:14;;;;;;;;;;;6.00;99.90;;;;;;5016642;28;19909;-86
2023/12/28 08:00:40;;;;;;;;;;;6.10;99.90;;;;;;5032119;28;19909;-86
2023/12/28 08:03:05;;;;;;;;;;;6.10;99.90;;;;;;5032695;28;19915;-86
2023/12/28 08:05:31;;;;;;;;;;;6.10;99.90;;;;;;5033199;28;19909;-86
2023/12/28 08:07:57;;;;;;;;;;;6.10;99.90;;;;;;5032248;28;19917;-86
2023/12/28 08:10:22;;;;;;;;;;;6.10;99.90;;;;;;5034299;28;20000;-86
2023/12/28 08:12:48;;;;;;;;;;;6.10;99.90;;;;;;5032697;28;19928;-85
2023/12/28 08:15:14;;;;;;;;;;;6.10;99.90;;;;;;5032497;28;20564;-86
2023/12/28 08:17:39;;;;;;;;;;;6.20;99.90;;;;;;5031811;28;19909;-85
2023/12/28 08:20:06;;;;;;;;;;;6.20;99.90;;;;;;5031761;28;19944;-86
2023/12/28 08:22:32;;;;;;;;;;;6.20;99.90;;;;;;5032527;28;19909;-85
2023/12/28 08:24:58;;;;;;;;;;;6.20;99.90;;;;;;5031928;28;19912;-84
2023/12/28 08:27:23;;;;;;;;;;;6.20;99.90;;;;;;5032012;28;19917;-85
2023/12/28 08:29:49;;;;;;;;;;;6.30;99.90;;;;;;5015639;28;20345;-85
2023/12/28 08:32:15;;;;;;;;;;;6.30;99.90;;;;;;5031850;28;19909;-85
2023/12/28 08:34:40;;;;;;;;;;;6.30;99.90;;;;;;5032046;28;20724;-86
2023/12/28 08:37:06;;;;;;;;;;;6.30;99.90;;;;;;5031522;28;19909;-86
2023/12/28 08:39:32;;;;;;;;;;;6.30;99.90;;;;;;5031009;28;19909;-85
2023/12/28 08:41:58;;;;;;;;;;;6.30;99.90;;;;;;5031399;28;19909;-85
2023/12/28 08:44:23;;;;;;;;;;;6.30;99.90;;;;;;5014881;28;19909;-85
2023/12/28 08:46:49;;;;;;;;;;;6.30;99.90;;;;;;5031193;28;19913;-85
2023/12/28 08:49:15;;;;;;;;;;;6.30;99.90;;;;;;5048541;28;20423;-85
2023/12/28 08:51:41;;;;;;;;;;;6.30;99.90;;;;;;5030980;28;19932;-85
2023/12/28 08:54:08;;;;;;;;;;;6.40;99.90;;;;;;5030888;28;19979;-85
2023/12/28 08:56:34;;;;;;;;;;;6.30;99.90;;;;;;5031217;28;19909;-86
2023/12/28 08:58:59;;;;;;;;;;;6.30;99.90;;;;;;5031295;28;20364;-85
2023/12/28 09:01:25;;;;;;;;;;;6.40;99.90;;;;;;5030387;28;19921;-86
2023/12/28 09:03:51;;;;;;;;;;;6.40;99.90;;;;;;5031705;28;19956;-86
2023/12/28 09:06:17;;;;;;;;;;;6.40;99.90;;;;;;5031303;28;19988;-85
2023/12/28 09:08:44;;;;;;;;;;;6.40;99.90;;;;;;5030725;28;19909;-85
2023/12/28 09:11:12;;;;;;;;;;;6.40;99.90;;;;;;5031059;28;19920;-86
2023/12/28 09:13:38;;;;;;;;;;;6.40;99.90;;;;;;5030395;28;20491;-86
2023/12/28 09:16:05;;;;;;;;;;;6.40;99.90;;;;;;5031414;28;19963;-85
2023/12/28 09:18:30;;;;;;;;;;;6.40;99.90;;;;;;5030709;28;19909;-86
2023/12/28 09:20:56;;;;;;;;;;;6.40;99.90;;;;;;5031395;28;19919;-86
2023/12/28 09:23:21;;;;;;;;;;;6.40;99.90;;;;;;5031193;28;19913;-86
2023/12/28 09:25:47;;;;;;;;;;;6.40;99.90;;;;;;5031280;28;19913;-86
2023/12/28 09:28:19;;;;;;;;;;;6.50;99.90;;;;;;5031467;28;20498;-85
2023/12/28 09:30:45;;;;;;;;;;;6.50;99.90;;;;;;5031325;28;19909;-86
2023/12/28 09:33:10;;;;;;;;;;;6.50;99.90;;;;;;5015635;28;19913;-85
2023/12/28 09:35:37;;;;;;;;;;;6.50;99.90;;;;;;5031472;28;19909;-86
2023/12/28 09:38:02;;;;;;;;;;;6.50;99.90;;;;;;5031494;28;20424;-86
2023/12/28 09:40:28;;;;;;;;;;;6.50;99.90;;;;;;5031098;28;20012;-85
2023/12/28 09:43:01;;;;;;;;;;;6.60;99.90;;;;;;5031224;28;20265;-85
2023/12/28 09:45:26;;;;;;;;;;;6.60;99.90;;;;;;5031362;28;19920;-86
2023/12/28 09:47:52;;;;;;;;;;;6.60;99.90;;;;;;5031352;28;20275;-86
2023/12/28 09:50:18;;;;;;;;;;;6.60;99.90;;;;;;5031389;28;19909;-85
2023/12/28 09:52:44;;;;;;;;;;;6.60;99.90;;;;;;5031691;28;19999;-86
2023/12/28 09:55:10;;;;;;;;;;;6.60;99.90;;;;;;5031435;28;19915;-86
2023/12/28 09:58:06;;;;;;;;;;;6.60;99.90;;;;;;5031402;28;20341;-86
2023/12/28 10:00:32;;;;;;;;;;;6.70;99.90;;;;;;5031414;28;19916;-86
2023/12/28 10:02:58;;;;;;;;;;;6.70;99.90;;;;;;5030980;28;20598;-86
2023/12/28 10:05:23;;;;;;;;;;;6.70;99.90;;;;;;5031667;28;19916;-85
2023/12/28 10:07:50;;;;;;;;;;;6.60;99.90;;;;;;5031562;28;19917;-86
2023/12/28 10:10:16;;;;;;;;;;;6.80;99.90;;;;;;5047780;28;20349;-86
2023/12/28 10:12:42;;;;;;;;;;;6.70;99.90;;;;;;5032005;28;19924;-85
2023/12/28 10:15:07;;;;;;;;;;;6.70;99.90;;;;;;5033452;28;20324;-86
2023/12/28 10:17:36;;;;;;;;;;;6.70;99.90;;;;;;5030995;28;19909;-85
2023/12/28 10:20:04;;;;;;;;;;;6.70;99.90;;;;;;5031209;28;19913;-86
2023/12/28 10:22:31;;;;;;;;;;;6.70;99.90;;;;;;5031803;28;19909;-85
2023/12/28 10:24:57;;;;;;;;;;;6.70;99.90;;;;;;5035558;28;20343;-86
2023/12/28 10:27:22;;;;;;;;;;;6.70;99.90;;;;;;5034937;28;19917;-87
2023/12/28 10:29:53;;;;;;;;;;;6.80;99.90;;;;;;5034735;28;20280;-87
2023/12/28 10:32:18;;;;;;;;;;;6.80;99.90;;;;;;5034757;28;19913;-85
2023/12/28 10:34:44;;;;;;;;;;;6.80;99.90;;;;;;5018089;28;19916;-86
2023/12/28 10:37:11;;;;;;;;;;;6.80;99.90;;;;;;5035305;28;20268;-86
2023/12/28 10:39:40;;;;;;;;;;;6.80;99.90;;;;;;5034356;28;19967;-86
2023/12/28 10:42:10;;;;;;;;;;;6.90;99.90;;;;;;5035134;28;19909;-86
2023/12/28 10:44:40;;;;;;;;;;;6.80;99.90;;;;;;5035056;28;19916;-86
2023/12/28 10:47:06;;;;;;;;;;;6.80;99.90;;;;;;5034508;28;19913;-86
2023/12/28 10:49:35;;;;;;;;;;;6.80;99.90;;;;;;5035778;28;19916;-86
2023/12/28 10:52:01;;;;;;;;;;;6.80;99.90;;;;;;5034640;28;19913;-86
2023/12/28 10:54:29;;;;;;;;;;;6.80;99.90;;;;;;5034308;28;20414;-86
2023/12/28 10:57:01;;;;;;;;;;;6.80;99.90;;;;;;5034422;28;19913;-86
2023/12/28 10:59:27;;;;;;;;;;;6.80;99.90;;;;;;5034442;28;19925;-86
2023/12/28 11:01:54;;;;;;;;;;;6.90;99.90;;;;;;5034665;28;19916;-86
2023/12/28 11:04:20;;;;;;;;;;;6.80;99.90;;;;;;5034436;28;20390;-86
2023/12/28 11:06:46;;;;;;;;;;;6.80;99.90;;;;;;5034219;28;19917;-85
2023/12/28 11:09:15;;;;;;;;;;;6.80;99.90;;;;;;5035823;28;19963;-86
2023/12/28 11:11:41;;;;;;;;;;;6.80;99.90;;;;;;5037238;28;19923;-85
2023/12/28 11:14:07;;;;;;;;;;;6.80;99.90;;;;;;5039774;28;19913;-86
2023/12/28 11:16:33;;;;;;;;;;;6.80;99.90;;;;;;5043489;28;20015;-86
2023/12/28 11:18:59;;;;;;;;;;;6.80;99.90;;;;;;5034263;28;20560;-86
2023/12/28 11:21:25;;;;;;;;;;;6.70;99.90;;;;;;5033824;28;19917;-85
2023/12/28 11:23:51;;;;;;;;;;;6.70;99.90;;;;;;5034236;28;20038;-85
2023/12/28 11:26:18;;;;;;;;;;;6.60;99.90;;;;;;5033877;28;20028;-86
2023/12/28 11:28:44;;;;;;;;;;;6.60;99.90;;;;;;5033964;28;19913;-87
2023/12/28 11:31:11;;;;;;;;;;;6.60;99.90;;;;;;5034772;28;20268;-85
2023/12/28 11:33:44;;;;;;;;;;;6.70;99.90;;;;;;5033721;28;20538;-86
2023/12/28 11:36:09;;;;;;;;;;;6.60;99.90;;;;;;5032283;28;19913;-86
2023/12/28 11:38:36;;;;;;;;;;;6.60;99.90;;;;;;5033145;28;19912;-86
2023/12/28 11:41:03;;;;;;;;;;;6.70;99.90;;;;;;5049274;28;19916;-86
2023/12/28 11:43:34;;;;;;;;;;;6.70;99.90;;;;;;5032508;28;20011;-86
2023/12/28 11:46:00;;;;;;;;;;;6.70;99.90;;;;;;5033092;28;19913;-86
2023/12/28 11:48:26;;;;;;;;;;;6.80;99.90;;;;;;5033054;28;19924;-86
2023/12/28 11:50:57;;;;;;;;;;;6.90;99.90;;;;;;5017755;28;19916;-86
2023/12/28 11:53:23;;;;;;;;;;;6.90;99.90;;;;;;5034174;28;20275;-86
2023/12/28 11:55:49;;;;;;;;;;;6.90;99.90;;;;;;5033779;28;19916;-85
2023/12/28 11:58:18;;;;;;;;;;;6.90;99.90;;;;;;5032679;28;19932;-86
2023/12/28 12:00:44;;;;;;;;;;;6.80;99.90;;;;;;5034565;28;19913;-86
2023/12/28 12:03:10;;;;;;;;;;;6.80;99.90;;;;;;5032601;28;19913;-85
2023/12/28 12:05:36;;;;;;;;;;;6.80;99.90;;;;;;5033530;28;19990;-86
2023/12/28 12:08:01;;;;;;;;;;;6.70;99.90;;;;;;5034012;28;19995;-86
2023/12/28 12:10:27;;;;;;;;;;;6.80;99.90;;;;;;5033989;28;19947;-86
2023/12/28 12:12:53;;;;;;;;;;;6.70;99.90;;;;;;5033284;28;20285;-86
2023/12/28 12:15:18;;;;;;;;;;;6.70;99.90;;;;;;5016313;28;19916;-86
2023/12/28 12:17:44;;;;;;;;;;;6.70;99.90;;;;;;5032757;28;19915;-86
2023/12/28 12:23:38;;;;;;;;;;;6.80;99.90;;;;;;5034219;28;19919;-86
2023/12/28 12:26:06;;;;;;;;;;;6.70;99.90;;;;;;5033172;28;20007;-86
2023/12/28 12:28:32;;;;;;;;;;;6.80;99.90;;;;;;5033291;28;19959;-86
2023/12/28 12:31:00;;;;;;;;;;;6.70;99.90;;;;;;5032789;28;20345;-86
2023/12/28 12:33:27;;;;;;;;;;;6.80;99.90;;;;;;5032698;28;19916;-86
2023/12/28 12:36:02;;;;;;;;;;;6.70;99.90;;;;;;5032590;28;19967;-86
2023/12/28 12:38:28;;;;;;;;;;;6.70;99.90;;;;;;5031918;28;19963;-86
2023/12/28 12:40:53;;;;;;;;;;;6.70;99.90;;;;;;5032014;28;19916;-86
2023/12/28 12:43:19;;;;;;;;;;;6.70;99.90;;;;;;5032317;28;19931;-86
2023/12/28 12:45:45;;;;;;;;;;;6.70;99.90;;;;;;5031716;28;19913;-86
2023/12/28 12:48:11;;;;;;;;;;;6.70;99.90;;;;;;5015653;28;19924;-86
2023/12/28 12:50:37;;;;;;;;;;;6.70;99.90;;;;;;5031792;28;19923;-85
2023/12/28 12:53:04;;;;;;;;;;;6.70;99.90;;;;;;5031726;28;19917;-86
2023/12/28 12:55:55;;;;;;;;;;;6.70;99.90;;;;;;5031989;28;19908;-86
2023/12/28 12:58:22;;;;;;;;;;;6.70;99.90;;;;;;5031835;28;20360;-86
2023/12/28 13:00:47;;;;;;;;;;;6.70;99.90;;;;;;5031157;28;19905;-86
2023/12/28 13:03:13;;;;;;;;;;;6.70;99.90;;;;;;5031723;28;20455;-85
2023/12/28 13:05:39;;;;;;;;;;;6.70;99.90;;;;;;5031726;28;19974;-86
2023/12/28 13:08:04;;;;;;;;;;;6.70;99.90;;;;;;5032128;28;19913;-85
2023/12/28 13:10:30;;;;;;;;;;;6.70;99.90;;;;;;5032542;28;20311;-85
2023/12/28 13:12:56;;;;;;;;;;;6.70;99.90;;;;;;5032382;28;19999;-86
2023/12/28 13:15:21;;;;;;;;;;;6.70;99.90;;;;;;5032130;28;19905;-86
2023/12/28 13:17:47;;;;;;;;;;;6.70;99.90;;;;;;5032760;28;20320;-86
2023/12/28 13:20:14;;;;;;;;;;;6.70;99.90;;;;;;5032286;28;20003;-85
2023/12/28 13:22:39;;;;;;;;;;;6.70;99.90;;;;;;5032314;28;19913;-86
2023/12/28 13:25:05;;;;;;;;;;;6.70;99.90;;;;;;5032835;28;19996;-87
2023/12/28 13:27:32;;;;;;;;;;;6.70;99.90;;;;;;5032021;28;20701;-86
2023/12/28 13:29:57;;;;;;;;;;;6.70;99.90;;;;;;5014883;28;19912;-85
2023/12/28 13:32:23;;;;;;;;;;;6.70;99.90;;;;;;5032753;28;19931;-85
2023/12/28 13:34:52;;;;;;;;;;;6.70;99.90;;;;;;5049223;28;19941;-85
2023/12/28 13:37:18;;;;;;;;;;;6.70;99.90;;;;;;5044061;28;19928;-86
2023/12/28 13:39:44;;;;;;;;;;;6.80;99.90;;;;;;5016057;28;19916;-86
2023/12/28 13:42:09;;;;;;;;;;;6.70;99.90;;;;;;5031684;28;19908;-86
2023/12/28 13:44:35;;;;;;;;;;;6.70;99.90;;;;;;5031765;28;19920;-86
2023/12/28 13:47:05;;;;;;;;;;;6.70;99.90;;;;;;5031321;28;20467;-86
2023/12/28 13:49:31;;;;;;;;;;;6.80;99.90;;;;;;5031729;28;19913;-85
2023/12/28 13:51:57;;;;;;;;;;;6.70;99.90;;;;;;5031837;28;19912;-86
2023/12/28 13:54:23;;;;;;;;;;;6.70;99.90;;;;;;5031215;28;19913;-86
2023/12/28 13:56:48;;;;;;;;;;;6.70;99.90;;;;;;5031871;28;19916;-86
2023/12/28 13:59:45;;;;;;;;;;;6.70;99.90;;;;;;5034776;28;19935;-86
2023/12/28 14:02:10;;;;;;;;;;;6.70;99.90;;;;;;5035181;28;19960;-86
2023/12/28 14:04:36;;;;;;;;;;;6.80;99.90;;;;;;5035558;28;19959;-86
2023/12/28 14:07:03;;;;;;;;;;;6.70;99.90;;;;;;5035310;28;19920;-86
2023/12/28 14:09:29;;;;;;;;;;;6.60;99.90;;;;;;5035672;28;19913;-85
2023/12/28 14:11:54;;;;;;;;;;;6.60;99.90;;;;;;5035152;28;20334;-86
2023/12/28 14:14:20;;;;;;;;;;;6.60;99.90;;;;;;5034689;28;20638;-86
2023/12/28 14:16:46;;;;;;;;;;;6.60;99.90;;;;;;5035583;28;19919;-86
2023/12/28 14:19:11;;;;;;;;;;;6.60;99.90;;;;;;5035498;28;19964;-86
2023/12/28 14:21:37;;;;;;;;;;;6.50;99.90;;;;;;5035527;28;19921;-86
2023/12/28 14:24:03;;;;;;;;;;;6.50;99.90;;;;;;5035812;28;20364;-86
2023/12/28 14:26:31;;;;;;;;;;;6.50;99.90;;;;;;5019323;28;19917;-86
2023/12/28 14:28:57;;;;;;;;;;;6.50;99.90;;;;;;5035186;28;19913;-87
2023/12/28 14:31:22;;;;;;;;;;;6.50;99.90;;;;;;5035186;28;20311;-87
2023/12/28 14:33:48;;;;;;;;;;;6.40;99.90;;;;;;5034776;28;19912;-86
2023/12/28 14:36:14;;;;;;;;;;;6.40;99.90;;;;;;5035058;28;20280;-87